createdAt,value
2022-08-30T00:00:38.137Z,72819.94
2022-08-30T00:01:14.212Z,72817.94
2022-08-30T00:01:46.743Z,72817.94
2022-08-30T00:02:19.584Z,72817.94
2022-08-30T00:02:54.764Z,72813.97
2022-08-30T00:03:27.612Z,72817.94
2022-08-30T00:04:00.648Z,72819.94
2022-08-30T00:04:35.613Z,72821.94
2022-08-30T00:05:09.215Z,72817.94
2022-08-30T00:05:42.140Z,72817.94
2022-08-30T00:06:18.581Z,72817.94
2022-08-30T00:06:51.006Z,72817.94
2022-08-30T00:07:23.573Z,72819.94
2022-08-30T00:07:58.491Z,72815.97
2022-08-30T00:08:33.905Z,72817.94
2022-08-30T00:09:06.201Z,72817.94
2022-08-30T00:09:41.094Z,72817.94
2022-08-30T00:10:13.453Z,72821.94
2022-08-30T00:10:46.846Z,72821.94
2022-08-30T00:11:26.122Z,72819.94
2022-08-30T00:11:58.628Z,72817.94
2022-08-30T00:12:32.903Z,72821.94
2022-08-30T00:13:08.415Z,72813.97
2022-08-30T00:13:43.042Z,72817.94
2022-08-30T00:14:15.313Z,72809.97
2022-08-30T00:14:50.355Z,72817.94
2022-08-30T00:15:23.794Z,72817.94
2022-08-30T00:15:56.532Z,72815.97
2022-08-30T00:16:31.542Z,72817.94
2022-08-30T00:17:04.098Z,72815.97
2022-08-30T00:17:36.577Z,72819.94
2022-08-30T00:18:12.227Z,72821.94
2022-08-30T00:18:44.705Z,72819.94
2022-08-30T00:19:16.990Z,72823.94
2022-08-30T00:19:52.370Z,72821.94
2022-08-30T00:20:27.918Z,72821.94
2022-08-30T00:21:00.257Z,72821.94
2022-08-30T00:21:35.294Z,72817.94
2022-08-30T00:22:07.617Z,72823.94
2022-08-30T00:22:40.166Z,72817.94
2022-08-30T00:23:15.460Z,72821.94
2022-08-30T00:23:50.562Z,72821.94
2022-08-30T00:24:23.398Z,72821.94
2022-08-30T00:25:00.820Z,72821.94
2022-08-30T00:25:33.250Z,72821.94
2022-08-30T00:26:09.283Z,72825.94
2022-08-30T00:26:41.718Z,72829.94
2022-08-30T00:27:14.166Z,72825.94
2022-08-30T00:27:50.233Z,72821.94
2022-08-30T00:28:22.561Z,72825.94
2022-08-30T00:28:55.301Z,72825.94
2022-08-30T00:29:30.368Z,72821.94
2022-08-30T00:30:03.302Z,72815.97
2022-08-30T00:30:35.953Z,72825.94
2022-08-30T00:31:11.000Z,72825.94
2022-08-30T00:31:47.570Z,72825.94
2022-08-30T00:32:21.517Z,72825.94
2022-08-30T00:32:56.951Z,72827.94
2022-08-30T00:33:29.893Z,72825.94
2022-08-30T00:34:02.318Z,72825.94
2022-08-30T00:34:37.477Z,72823.94
2022-08-30T00:35:13.074Z,72821.94
2022-08-30T00:35:48.044Z,72821.94
2022-08-30T00:36:21.324Z,72823.94
2022-08-30T00:36:53.662Z,72825.94
2022-08-30T00:37:28.609Z,72827.94
2022-08-30T00:38:01.018Z,72825.94
2022-08-30T00:38:33.333Z,72823.94
2022-08-30T00:39:08.205Z,72825.94
2022-08-30T00:39:43.182Z,72825.94
2022-08-30T00:40:16.116Z,72831.94
2022-08-30T00:40:48.548Z,72825.94
2022-08-30T00:41:23.502Z,72829.94
2022-08-30T00:41:55.865Z,72827.94
2022-08-30T00:42:28.229Z,72829.94
2022-08-30T00:43:05.767Z,72827.94
2022-08-30T00:43:38.297Z,72825.94
2022-08-30T00:44:10.610Z,72825.94
2022-08-30T00:44:45.929Z,72829.94
2022-08-30T00:45:20.807Z,72823.94
2022-08-30T00:45:53.446Z,72827.94
2022-08-30T00:46:28.430Z,72829.94
2022-08-30T00:47:00.865Z,72825.94
2022-08-30T00:47:33.225Z,72833.91
2022-08-30T00:48:08.865Z,72829.94
2022-08-30T00:48:43.888Z,72831.94
2022-08-30T00:49:16.323Z,72825.94
2022-08-30T00:49:54.901Z,72825.94
2022-08-30T00:50:31.741Z,72827.94
2022-08-30T00:51:06.311Z,72829.94
2022-08-30T00:51:41.858Z,72825.94
2022-08-30T00:52:14.682Z,72829.94
2022-08-30T00:52:48.985Z,72829.94
2022-08-30T00:53:27.041Z,72827.94
2022-08-30T00:54:01.654Z,72827.94
2022-08-30T00:54:37.594Z,72827.94
2022-08-30T00:55:14.285Z,72829.94
2022-08-30T00:55:46.920Z,72825.94
2022-08-30T00:56:19.454Z,72825.94
2022-08-30T00:56:55.602Z,72825.94
2022-08-30T00:57:27.969Z,72825.94
2022-08-30T00:58:04.299Z,72829.94
2022-08-30T00:58:41.746Z,72825.94
2022-08-30T00:59:14.266Z,72825.94
2022-08-30T00:59:49.697Z,72821.94
2022-08-30T01:00:24.758Z,72829.94
2022-08-30T01:00:59.026Z,72829.94
2022-08-30T01:01:34.116Z,72829.94
2022-08-30T01:02:10.408Z,72825.94
2022-08-30T01:02:43.088Z,72821.94
2022-08-30T01:03:15.830Z,72821.94
2022-08-30T01:03:51.753Z,72829.94
2022-08-30T01:04:25.970Z,72825.94
2022-08-30T01:04:58.456Z,72825.94
2022-08-30T01:05:33.605Z,72829.94
2022-08-30T01:06:07.692Z,72829.94
2022-08-30T01:06:40.247Z,72825.94
2022-08-30T01:07:16.998Z,72835.91
2022-08-30T01:07:49.318Z,72823.94
2022-08-30T01:08:22.293Z,72825.94
2022-08-30T01:08:57.417Z,72833.91
2022-08-30T01:09:30.146Z,72825.94
2022-08-30T01:10:06.573Z,72823.94
2022-08-30T01:10:41.709Z,72827.94
2022-08-30T01:11:16.085Z,72823.94
2022-08-30T01:11:48.846Z,72825.94
2022-08-30T01:12:24.164Z,72829.94
2022-08-30T01:12:56.654Z,72829.94
2022-08-30T01:13:29.096Z,72823.94
2022-08-30T01:14:04.551Z,72825.94
2022-08-30T01:14:37.125Z,72827.94
2022-08-30T01:15:14.563Z,72825.94
2022-08-30T01:15:50.696Z,72825.94
2022-08-30T01:16:23.486Z,72821.94
2022-08-30T01:16:56.737Z,72821.94
2022-08-30T01:17:32.085Z,72825.94
2022-08-30T01:18:05.666Z,72821.94
2022-08-30T01:18:42.907Z,72825.94
2022-08-30T01:19:23.637Z,72821.94
2022-08-30T01:19:59.366Z,72821.94
2022-08-30T01:20:38.349Z,72823.94
2022-08-30T01:21:16.308Z,72823.94
2022-08-30T01:21:53.465Z,72821.94
2022-08-30T01:22:28.889Z,72817.94
2022-08-30T01:23:09.937Z,72821.94
2022-08-30T01:23:47.492Z,72817.94
2022-08-30T01:24:20.086Z,72825.94
2022-08-30T01:24:54.487Z,72821.94
2022-08-30T01:25:32.246Z,72823.94
2022-08-30T01:26:06.146Z,72817.94
2022-08-30T01:26:39.939Z,72821.94
2022-08-30T01:27:14.865Z,72825.94
2022-08-30T01:27:57.352Z,72823.94
2022-08-30T01:28:33.000Z,72821.94
2022-08-30T01:29:08.300Z,72821.94
2022-08-30T01:29:40.841Z,72827.94
2022-08-30T01:30:16.539Z,72821.94
2022-08-30T01:30:48.952Z,72829.94
2022-08-30T01:31:21.492Z,72823.94
2022-08-30T01:31:56.513Z,72825.94
2022-08-30T01:32:29.581Z,72825.94
2022-08-30T01:33:04.090Z,72829.94
2022-08-30T01:33:40.326Z,72825.94
2022-08-30T01:34:13.065Z,72825.94
2022-08-30T01:34:45.814Z,72825.94
2022-08-30T01:35:23.030Z,72825.94
2022-08-30T01:35:57.246Z,72823.94
2022-08-30T01:36:29.627Z,72829.94
2022-08-30T01:37:04.649Z,72827.94
2022-08-30T01:37:37.649Z,72829.94
2022-08-30T01:38:13.486Z,72827.94
2022-08-30T01:38:50.890Z,72829.94
2022-08-30T01:39:23.393Z,72825.94
2022-08-30T01:39:56.200Z,72831.94
2022-08-30T01:40:31.285Z,72829.94
2022-08-30T01:41:10.498Z,72829.94
2022-08-30T01:41:46.233Z,72829.94
2022-08-30T01:42:18.633Z,72829.94
2022-08-30T01:42:50.968Z,72829.94
2022-08-30T01:43:26.730Z,72829.94
2022-08-30T01:44:00.557Z,72829.94
2022-08-30T01:44:32.870Z,72829.94
2022-08-30T01:45:08.896Z,72825.94
2022-08-30T01:45:41.327Z,72825.94
2022-08-30T01:46:15.051Z,72827.94
2022-08-30T01:46:50.840Z,72825.94
2022-08-30T01:47:24.209Z,72827.94
2022-08-30T01:47:56.529Z,72829.94
2022-08-30T01:48:34.842Z,72827.94
2022-08-30T01:49:11.273Z,72829.94
2022-08-30T01:49:43.678Z,72827.94
2022-08-30T01:50:18.705Z,72827.94
2022-08-30T01:50:51.054Z,72821.94
2022-08-30T01:51:24.897Z,72825.94
2022-08-30T01:52:01.459Z,72827.94
2022-08-30T01:52:35.275Z,72829.94
2022-08-30T01:53:07.626Z,72829.94
2022-08-30T01:53:49.831Z,72825.94
2022-08-30T01:54:22.179Z,72825.94
2022-08-30T01:54:59.689Z,72831.94
2022-08-30T01:55:34.683Z,72821.94
2022-08-30T01:56:07.758Z,72823.94
2022-08-30T01:56:40.167Z,72821.94
2022-08-30T01:57:18.272Z,72821.94
2022-08-30T01:57:50.606Z,72821.94
2022-08-30T01:58:23.430Z,72821.94
2022-08-30T01:59:02.641Z,72821.94
2022-08-30T01:59:35.945Z,72825.94
2022-08-30T02:00:11.097Z,72821.94
2022-08-30T02:00:48.889Z,72825.94
2022-08-30T02:01:24.232Z,72821.94
2022-08-30T02:02:00.229Z,72821.94
2022-08-30T02:02:32.699Z,72821.94
2022-08-30T02:03:05.319Z,72825.94
2022-08-30T02:03:40.458Z,72831.94
2022-08-30T02:04:14.609Z,72821.94
2022-08-30T02:04:50.003Z,72833.91
2022-08-30T02:05:22.414Z,72825.94
2022-08-30T02:05:55.310Z,72829.94
2022-08-30T02:06:28.120Z,72825.94
2022-08-30T02:07:03.166Z,72825.94
2022-08-30T02:07:35.483Z,72825.94
2022-08-30T02:08:08.159Z,72825.94
2022-08-30T02:08:43.835Z,72825.94
2022-08-30T02:09:18.885Z,72825.94
2022-08-30T02:09:51.651Z,72829.94
2022-08-30T02:10:26.690Z,72825.94
2022-08-30T02:10:59.845Z,72827.94
2022-08-30T02:11:32.158Z,72823.94
2022-08-30T02:12:07.817Z,72825.94
2022-08-30T02:12:40.109Z,72829.94
2022-08-30T02:13:12.395Z,72829.94
2022-08-30T02:13:47.935Z,72823.94
2022-08-30T02:14:21.182Z,72825.94
2022-08-30T02:14:53.653Z,72829.94
2022-08-30T02:15:28.647Z,72825.94
2022-08-30T02:16:00.982Z,72823.94
2022-08-30T02:16:33.864Z,72821.94
2022-08-30T02:17:10.472Z,72829.94
2022-08-30T02:17:42.889Z,72821.94
2022-08-30T02:18:15.202Z,72825.94
2022-08-30T02:18:50.125Z,72827.94
2022-08-30T02:19:22.549Z,72829.94
2022-08-30T02:19:54.857Z,72821.94
2022-08-30T02:20:30.049Z,72825.94
2022-08-30T02:21:02.674Z,72825.94
2022-08-30T02:21:35.039Z,72827.94
2022-08-30T02:22:10.396Z,72827.94
2022-08-30T02:22:47.631Z,72829.94
2022-08-30T02:23:24.361Z,72827.94
2022-08-30T02:23:56.775Z,72829.94
2022-08-30T02:24:32.046Z,72825.94
2022-08-30T02:25:09.826Z,72829.94
2022-08-30T02:25:53.701Z,72829.94
2022-08-30T02:26:26.906Z,72833.91
2022-08-30T02:27:01.838Z,72833.91
2022-08-30T02:27:34.378Z,72833.91
2022-08-30T02:28:06.812Z,72833.91
2022-08-30T02:28:49.660Z,72829.94
2022-08-30T02:29:23.650Z,72831.94
2022-08-30T02:29:56.092Z,72829.94
2022-08-30T02:30:31.127Z,72833.91
2022-08-30T02:31:03.559Z,72829.94
2022-08-30T02:31:35.982Z,72833.91
2022-08-30T02:32:11.049Z,72829.94
2022-08-30T02:32:43.360Z,72829.94
2022-08-30T02:33:15.873Z,72829.94
2022-08-30T02:33:51.505Z,72831.94
2022-08-30T02:34:23.836Z,72829.94
2022-08-30T02:34:56.206Z,72833.91
2022-08-30T02:35:31.277Z,72829.94
2022-08-30T02:36:04.010Z,72833.91
2022-08-30T02:36:36.910Z,72829.94
2022-08-30T02:37:11.952Z,72827.94
2022-08-30T02:37:44.297Z,72823.94
2022-08-30T02:38:19.960Z,72823.94
2022-08-30T02:38:55.828Z,72829.94
2022-08-30T02:39:28.183Z,72825.94
2022-08-30T02:40:03.990Z,72827.94
2022-08-30T02:40:39.134Z,72829.94
2022-08-30T02:41:11.642Z,72825.94
2022-08-30T02:41:44.015Z,72825.94
2022-08-30T02:42:18.953Z,72827.94
2022-08-30T02:42:51.698Z,72825.94
2022-08-30T02:43:24.295Z,72827.94
2022-08-30T02:44:00.701Z,72821.94
2022-08-30T02:44:33.051Z,72827.94
2022-08-30T02:45:06.390Z,72829.94
2022-08-30T02:45:38.814Z,72825.94
2022-08-30T02:46:13.894Z,72825.94
2022-08-30T02:46:46.259Z,72825.94
2022-08-30T02:47:18.586Z,72825.94
2022-08-30T02:47:53.601Z,72825.94
2022-08-30T02:48:25.922Z,72821.94
2022-08-30T02:49:00.336Z,72823.94
2022-08-30T02:49:40.790Z,72825.94
2022-08-30T02:50:13.175Z,72821.94
2022-08-30T02:50:48.178Z,72821.94
2022-08-30T02:51:23.267Z,72823.94
2022-08-30T02:51:55.570Z,72817.94
2022-08-30T02:52:28.076Z,72819.94
2022-08-30T02:53:03.053Z,72817.94
2022-08-30T02:53:35.862Z,72821.94
2022-08-30T02:54:09.250Z,72817.94
2022-08-30T02:54:44.144Z,72813.97
2022-08-30T02:55:19.692Z,72817.94
2022-08-30T02:55:52.030Z,72817.94
2022-08-30T02:56:28.787Z,72811.97
2022-08-30T02:57:05.110Z,72821.94
2022-08-30T02:57:38.033Z,72813.97
2022-08-30T02:58:13.445Z,72817.94
2022-08-30T02:58:45.996Z,72813.97
2022-08-30T02:59:19.031Z,72813.97
2022-08-30T02:59:54.037Z,72813.97
2022-08-30T03:00:26.381Z,72819.94
2022-08-30T03:00:59.708Z,72809.97
2022-08-30T03:01:39.219Z,72805.97
2022-08-30T03:02:11.981Z,72813.97
2022-08-30T03:02:44.540Z,72811.97
2022-08-30T03:03:19.795Z,72809.97
2022-08-30T03:03:52.398Z,72809.97
2022-08-30T03:04:26.689Z,72805.97
2022-08-30T03:05:01.982Z,72807.97
2022-08-30T03:05:35.278Z,72813.97
2022-08-30T03:06:12.430Z,72803.97
2022-08-30T03:06:47.399Z,72809.97
2022-08-30T03:07:20.049Z,72813.97
2022-08-30T03:07:52.455Z,72809.97
2022-08-30T03:08:27.603Z,72811.97
2022-08-30T03:08:59.926Z,72809.97
2022-08-30T03:09:32.800Z,72813.97
2022-08-30T03:10:08.430Z,72807.97
2022-08-30T03:10:43.375Z,72801.97
2022-08-30T03:11:15.746Z,72803.97
2022-08-30T03:11:50.722Z,72809.97
2022-08-30T03:12:23.142Z,72805.97
2022-08-30T03:12:55.663Z,72801.97
2022-08-30T03:13:30.627Z,72805.97
2022-08-30T03:14:02.964Z,72801.97
2022-08-30T03:14:36.369Z,72807.97
2022-08-30T03:15:15.306Z,72809.97
2022-08-30T03:15:50.524Z,72801.97
2022-08-30T03:16:25.521Z,72801.97
2022-08-30T03:16:58.201Z,72805.97
2022-08-30T03:17:31.284Z,72801.97
2022-08-30T03:18:06.301Z,72809.97
2022-08-30T03:18:38.594Z,72801.97
2022-08-30T03:19:10.885Z,72801.97
2022-08-30T03:19:56.209Z,72801.97
2022-08-30T03:20:28.831Z,72801.97
2022-08-30T03:21:01.137Z,72809.97
2022-08-30T03:21:39.665Z,72813.97
2022-08-30T03:22:14.198Z,72805.97
2022-08-30T03:22:48.470Z,72803.97
2022-08-30T03:23:27.234Z,72807.97
2022-08-30T03:23:59.485Z,72805.97
2022-08-30T03:24:32.066Z,72801.97
2022-08-30T03:25:06.001Z,72807.97
2022-08-30T03:25:44.027Z,72807.97
2022-08-30T03:26:20.237Z,72809.97
2022-08-30T03:26:54.686Z,72801.97
2022-08-30T03:27:31.492Z,72801.97
2022-08-30T03:28:06.261Z,72801.97
2022-08-30T03:28:39.113Z,72801.97
2022-08-30T03:29:17.780Z,72798.00
2022-08-30T03:29:51.858Z,72800.00
2022-08-30T03:30:26.658Z,72798.00
2022-08-30T03:31:02.563Z,72801.97
2022-08-30T03:31:37.921Z,72803.97
2022-08-30T03:32:28.731Z,72805.97
2022-08-30T03:33:01.387Z,72809.97
2022-08-30T03:33:34.042Z,72798.00
2022-08-30T03:34:10.948Z,72801.97
2022-08-30T03:34:43.274Z,72801.97
2022-08-30T03:35:16.889Z,72803.97
2022-08-30T03:35:51.898Z,72809.97
2022-08-30T03:36:26.833Z,72809.97
2022-08-30T03:37:01.421Z,72809.97
2022-08-30T03:37:35.356Z,72809.97
2022-08-30T03:38:10.562Z,72809.97
2022-08-30T03:38:45.837Z,72809.97
2022-08-30T03:39:21.502Z,72811.97
2022-08-30T03:39:57.788Z,72809.97
2022-08-30T03:40:38.448Z,72813.97
2022-08-30T03:41:11.473Z,72809.97
2022-08-30T03:41:49.013Z,72809.97
2022-08-30T03:42:21.732Z,72809.97
2022-08-30T03:42:58.941Z,72817.94
2022-08-30T03:43:33.845Z,72813.97
2022-08-30T03:44:06.294Z,72809.97
2022-08-30T03:44:41.768Z,72811.97
2022-08-30T03:45:18.200Z,72815.97
2022-08-30T03:45:50.548Z,72813.97
2022-08-30T03:46:23.201Z,72817.94
2022-08-30T03:47:03.982Z,72813.97
2022-08-30T03:47:36.356Z,72817.94
2022-08-30T03:48:09.883Z,72817.94
2022-08-30T03:48:47.396Z,72817.94
2022-08-30T03:49:22.880Z,72817.94
2022-08-30T03:49:56.782Z,72817.94
2022-08-30T03:50:32.526Z,72813.97
2022-08-30T03:51:06.161Z,72817.94
2022-08-30T03:51:40.397Z,72817.94
2022-08-30T03:52:17.389Z,72821.94
2022-08-30T03:52:51.282Z,72817.94
2022-08-30T03:53:27.361Z,72817.94
2022-08-30T03:54:03.849Z,72821.94
2022-08-30T03:54:36.216Z,72813.97
2022-08-30T03:55:10.347Z,72817.94
2022-08-30T03:55:51.905Z,72817.94
2022-08-30T03:56:25.002Z,72817.94
2022-08-30T03:57:02.778Z,72819.94
2022-08-30T03:57:36.621Z,72817.94
2022-08-30T03:58:11.845Z,72821.94
2022-08-30T03:58:44.656Z,72817.94
2022-08-30T03:59:17.238Z,72813.97
2022-08-30T03:59:52.445Z,72821.94
2022-08-30T04:00:26.736Z,72815.97
2022-08-30T04:01:01.795Z,72819.94
2022-08-30T04:01:34.137Z,72821.94
2022-08-30T04:02:07.051Z,72823.94
2022-08-30T04:02:42.157Z,72821.94
2022-08-30T04:03:14.798Z,72823.94
2022-08-30T04:03:47.174Z,72825.94
2022-08-30T04:04:22.077Z,72819.94
2022-08-30T04:04:54.412Z,72821.94
2022-08-30T04:05:27.436Z,72823.94
2022-08-30T04:06:02.513Z,72825.94
2022-08-30T04:06:34.870Z,72825.94
2022-08-30T04:07:09.542Z,72825.94
2022-08-30T04:07:46.262Z,72825.94
2022-08-30T04:08:18.635Z,72825.94
2022-08-30T04:08:52.236Z,72827.94
2022-08-30T04:09:28.674Z,72825.94
2022-08-30T04:10:02.825Z,72827.94
2022-08-30T04:10:37.174Z,72827.94
2022-08-30T04:11:12.933Z,72825.94
2022-08-30T04:11:51.459Z,72829.94
2022-08-30T04:12:26.442Z,72827.94
2022-08-30T04:13:02.087Z,72829.94
2022-08-30T04:13:34.945Z,72833.91
2022-08-30T04:14:10.412Z,72831.94
2022-08-30T04:14:51.155Z,72835.91
2022-08-30T04:15:23.507Z,72833.91
2022-08-30T04:15:56.202Z,72829.94
2022-08-30T04:16:32.637Z,72833.91
2022-08-30T04:17:05.279Z,72837.91
2022-08-30T04:17:37.680Z,72833.91
2022-08-30T04:18:20.410Z,72829.94
2022-08-30T04:18:53.316Z,72835.91
2022-08-30T04:19:28.460Z,72833.91
2022-08-30T04:20:01.104Z,72833.91
2022-08-30T04:20:34.208Z,72831.94
2022-08-30T04:21:14.107Z,72833.91
2022-08-30T04:21:48.911Z,72825.94
2022-08-30T04:22:23.855Z,72833.91
2022-08-30T04:22:58.951Z,72829.94
2022-08-30T04:23:34.408Z,72837.91
2022-08-30T04:24:06.889Z,72833.91
2022-08-30T04:24:50.901Z,72837.91
2022-08-30T04:25:23.773Z,72829.94
2022-08-30T04:25:58.166Z,72831.94
2022-08-30T04:26:34.312Z,72831.94
2022-08-30T04:27:08.958Z,72827.94
2022-08-30T04:27:45.517Z,72825.94
2022-08-30T04:28:23.622Z,72833.91
2022-08-30T04:28:57.292Z,72825.94
2022-08-30T04:29:33.735Z,72825.94
2022-08-30T04:30:12.233Z,72825.94
2022-08-30T04:30:45.098Z,72829.94
2022-08-30T04:31:20.588Z,72831.94
2022-08-30T04:31:57.418Z,72831.94
2022-08-30T04:32:31.023Z,72825.94
2022-08-30T04:33:03.479Z,72825.94
2022-08-30T04:33:38.860Z,72829.94
2022-08-30T04:34:11.962Z,72831.94
2022-08-30T04:34:46.734Z,72829.94
2022-08-30T04:35:27.046Z,72833.91
2022-08-30T04:36:03.739Z,72833.91
2022-08-30T04:36:36.355Z,72829.94
2022-08-30T04:37:11.369Z,72831.94
2022-08-30T04:37:43.858Z,72829.94
2022-08-30T04:38:17.424Z,72833.91
2022-08-30T04:38:52.643Z,72835.91
2022-08-30T04:39:25.021Z,72833.91
2022-08-30T04:39:57.895Z,72835.91
2022-08-30T04:40:33.077Z,72833.91
2022-08-30T04:41:12.229Z,72837.91
2022-08-30T04:41:46.562Z,72841.91
2022-08-30T04:42:21.666Z,72837.91
2022-08-30T04:42:57.110Z,72833.91
2022-08-30T04:43:31.097Z,72843.91
2022-08-30T04:44:06.607Z,72837.91
2022-08-30T04:44:41.469Z,72839.91
2022-08-30T04:45:16.450Z,72841.91
2022-08-30T04:45:52.493Z,72841.91
2022-08-30T04:46:24.861Z,72843.91
2022-08-30T04:46:57.149Z,72839.91
2022-08-30T04:47:32.074Z,72845.91
2022-08-30T04:48:04.533Z,72847.88
2022-08-30T04:48:37.494Z,72845.91
2022-08-30T04:49:12.386Z,72841.91
2022-08-30T04:49:44.729Z,72843.91
2022-08-30T04:50:18.845Z,72841.91
2022-08-30T04:50:53.982Z,72845.91
2022-08-30T04:51:26.298Z,72841.91
2022-08-30T04:52:01.202Z,72843.91
2022-08-30T04:52:33.576Z,72845.91
2022-08-30T04:53:05.914Z,72845.91
2022-08-30T04:53:41.113Z,72845.91
2022-08-30T04:54:13.417Z,72849.88
2022-08-30T04:54:48.667Z,72845.91
2022-08-30T04:55:21.820Z,72843.91
2022-08-30T04:55:54.145Z,72849.88
2022-08-30T04:56:29.486Z,72849.88
2022-08-30T04:57:01.919Z,72847.88
2022-08-30T04:57:34.433Z,72849.88
2022-08-30T04:58:12.142Z,72851.88
2022-08-30T04:58:44.996Z,72851.88
2022-08-30T04:59:19.905Z,72849.88
2022-08-30T04:59:52.305Z,72845.91
2022-08-30T05:00:24.711Z,72849.88
2022-08-30T05:00:59.678Z,72849.88
2022-08-30T05:01:33.143Z,72849.88
2022-08-30T05:02:20.781Z,72853.88
2022-08-30T05:02:53.282Z,72853.88
2022-08-30T05:03:25.603Z,72855.88
2022-08-30T05:04:01.009Z,72857.88
2022-08-30T05:04:33.397Z,72853.88
2022-08-30T05:05:21.913Z,72853.88
2022-08-30T05:05:54.411Z,72859.88
2022-08-30T05:06:31.580Z,72861.88
2022-08-30T05:07:04.114Z,72861.88
2022-08-30T05:07:36.660Z,72857.88
2022-08-30T05:08:12.630Z,72861.88
2022-08-30T05:08:46.145Z,72861.88
2022-08-30T05:09:21.873Z,72859.88
2022-08-30T05:09:54.218Z,72863.84
2022-08-30T05:10:28.684Z,72865.84
2022-08-30T05:11:06.841Z,72869.84
2022-08-30T05:11:39.166Z,72865.84
2022-08-30T05:12:11.505Z,72865.84
2022-08-30T05:12:48.366Z,72865.84
2022-08-30T05:13:24.349Z,72869.84
2022-08-30T05:14:10.341Z,72865.84
2022-08-30T05:14:42.657Z,72871.84
2022-08-30T05:15:18.149Z,72873.84
2022-08-30T05:15:53.166Z,72873.84
2022-08-30T05:16:26.759Z,72869.84
2022-08-30T05:16:59.143Z,72877.84
2022-08-30T05:17:34.063Z,72877.84
2022-08-30T05:18:08.011Z,72879.81
2022-08-30T05:18:45.013Z,72877.84
2022-08-30T05:19:19.933Z,72881.81
2022-08-30T05:19:52.285Z,72881.81
2022-08-30T05:20:24.683Z,72879.81
2022-08-30T05:21:07.033Z,72869.84
2022-08-30T05:21:41.305Z,72861.88
2022-08-30T05:22:16.382Z,72849.88
2022-08-30T05:22:53.379Z,72841.91
2022-08-30T05:23:28.958Z,72837.91
2022-08-30T05:24:01.772Z,72829.94
2022-08-30T05:24:34.656Z,72825.94
2022-08-30T05:25:08.042Z,72825.94
2022-08-30T05:25:44.614Z,72817.94
2022-08-30T05:26:19.118Z,72813.97
2022-08-30T05:26:51.551Z,72811.97
2022-08-30T05:27:26.515Z,72809.97
2022-08-30T05:27:59.470Z,72803.97
2022-08-30T05:28:34.776Z,72809.97
2022-08-30T05:29:09.918Z,72803.97
2022-08-30T05:29:42.257Z,72801.97
2022-08-30T05:30:16.323Z,72803.97
2022-08-30T05:30:51.329Z,72798.00
2022-08-30T05:31:25.496Z,72803.97
2022-08-30T05:31:58.030Z,72800.00
2022-08-30T05:32:32.961Z,72801.97
2022-08-30T05:33:05.359Z,72794.00
2022-08-30T05:33:38.891Z,72794.00
2022-08-30T05:34:14.090Z,72794.00
2022-08-30T05:34:46.429Z,72794.00
2022-08-30T05:35:24.889Z,72792.00
2022-08-30T05:36:00.592Z,72794.00
2022-08-30T05:36:35.894Z,72794.00
2022-08-30T05:37:08.206Z,72786.00
2022-08-30T05:37:43.790Z,72792.00
2022-08-30T05:38:16.219Z,72794.00
2022-08-30T05:38:48.574Z,72786.00
2022-08-30T05:39:23.953Z,72790.00
2022-08-30T05:39:56.785Z,72790.00
2022-08-30T05:40:31.822Z,72790.00
2022-08-30T05:41:10.680Z,72790.00
2022-08-30T05:41:43.457Z,72786.00
2022-08-30T05:42:18.793Z,72790.00
2022-08-30T05:42:51.217Z,72790.00
2022-08-30T05:43:23.561Z,72786.00
2022-08-30T05:44:07.058Z,72786.00
2022-08-30T05:44:39.371Z,72786.00
2022-08-30T05:45:19.393Z,72782.03
2022-08-30T05:45:59.129Z,72786.00
2022-08-30T05:46:35.642Z,72790.00
2022-08-30T05:47:07.945Z,72786.00
2022-08-30T05:47:40.797Z,72782.03
2022-08-30T05:48:15.951Z,72782.03
2022-08-30T05:48:48.750Z,72778.03
2022-08-30T05:49:21.041Z,72780.03
2022-08-30T05:49:56.282Z,72780.03
2022-08-30T05:50:28.629Z,72778.03
2022-08-30T05:51:08.790Z,72782.03
2022-08-30T05:51:43.467Z,72778.03
2022-08-30T05:52:18.294Z,72782.03
2022-08-30T05:52:53.226Z,72780.03
2022-08-30T05:53:25.645Z,72778.03
2022-08-30T05:53:58.979Z,72780.03
2022-08-30T05:54:33.894Z,72778.03
2022-08-30T05:55:07.882Z,72778.03
2022-08-30T05:55:41.632Z,72784.03
2022-08-30T05:56:18.539Z,72778.03
2022-08-30T05:56:50.926Z,72782.03
2022-08-30T05:57:23.274Z,72782.03
2022-08-30T05:57:58.228Z,72780.03
2022-08-30T05:58:30.987Z,72782.03
2022-08-30T05:59:07.274Z,72782.03
2022-08-30T05:59:42.184Z,72782.03
2022-08-30T06:00:18.124Z,72786.00
2022-08-30T06:00:53.045Z,72782.03
2022-08-30T06:01:27.209Z,72786.00
2022-08-30T06:01:59.781Z,72784.03
2022-08-30T06:02:34.798Z,72790.00
2022-08-30T06:03:07.224Z,72786.00
2022-08-30T06:03:39.590Z,72786.00
2022-08-30T06:04:15.151Z,72786.00
2022-08-30T06:04:47.480Z,72786.00
2022-08-30T06:05:20.006Z,72784.03
2022-08-30T06:05:56.042Z,72786.00
2022-08-30T06:06:29.053Z,72786.00
2022-08-30T06:07:01.379Z,72786.00
2022-08-30T06:07:36.875Z,72786.00
2022-08-30T06:08:09.234Z,72786.00
2022-08-30T06:08:42.574Z,72784.03
2022-08-30T06:09:18.647Z,72786.00
2022-08-30T06:09:50.964Z,72786.00
2022-08-30T06:10:25.890Z,72786.00
2022-08-30T06:10:58.194Z,72788.00
2022-08-30T06:11:30.714Z,72786.00
2022-08-30T06:12:06.318Z,72790.00
2022-08-30T06:12:38.637Z,72786.00
2022-08-30T06:13:10.961Z,72782.03
2022-08-30T06:13:46.065Z,72786.00
2022-08-30T06:14:21.431Z,72784.03
2022-08-30T06:14:53.791Z,72782.03
2022-08-30T06:15:28.722Z,72782.03
2022-08-30T06:16:01.097Z,72782.03
2022-08-30T06:16:34.614Z,72782.03
2022-08-30T06:17:10.795Z,72784.03
2022-08-30T06:17:43.145Z,72786.00
2022-08-30T06:18:15.694Z,72782.03
2022-08-30T06:18:51.290Z,72786.00
2022-08-30T06:19:23.606Z,72786.00
2022-08-30T06:19:55.969Z,72786.00
2022-08-30T06:20:30.978Z,72794.00
2022-08-30T06:21:03.545Z,72786.00
2022-08-30T06:21:37.174Z,72794.00
2022-08-30T06:22:12.081Z,72790.00
2022-08-30T06:22:44.406Z,72792.00
2022-08-30T06:23:17.742Z,72790.00
2022-08-30T06:23:53.126Z,72794.00
2022-08-30T06:24:41.137Z,72794.00
2022-08-30T06:25:21.479Z,72798.00
2022-08-30T06:25:53.790Z,72796.00
2022-08-30T06:26:26.602Z,72790.00
2022-08-30T06:27:01.543Z,72794.00
2022-08-30T06:27:33.877Z,72798.00
2022-08-30T06:28:09.785Z,72790.00
2022-08-30T06:28:42.341Z,72790.00
2022-08-30T06:29:18.538Z,72794.00
2022-08-30T06:29:54.323Z,72792.00
2022-08-30T06:30:29.262Z,72796.00
2022-08-30T06:31:01.645Z,72790.00
2022-08-30T06:31:34.175Z,72794.00
2022-08-30T06:32:09.254Z,72794.00
2022-08-30T06:32:41.568Z,72796.00
2022-08-30T06:33:13.905Z,72800.00
2022-08-30T06:33:49.432Z,72798.00
2022-08-30T06:34:21.711Z,72796.00
2022-08-30T06:34:54.073Z,72794.00
2022-08-30T06:35:30.693Z,72798.00
2022-08-30T06:36:06.365Z,72794.00
2022-08-30T06:36:41.531Z,72794.00
2022-08-30T06:37:29.027Z,72794.00
2022-08-30T06:38:04.897Z,72796.00
2022-08-30T06:38:37.491Z,72790.00
2022-08-30T06:39:13.530Z,72786.00
2022-08-30T06:39:45.837Z,72786.00
2022-08-30T06:40:20.845Z,72778.03
2022-08-30T06:40:55.755Z,72784.03
2022-08-30T06:41:30.544Z,72792.00
2022-08-30T06:42:02.922Z,72786.00
2022-08-30T06:42:41.107Z,72790.00
2022-08-30T06:43:13.487Z,72786.00
2022-08-30T06:43:49.082Z,72782.03
2022-08-30T06:44:24.337Z,72784.03
2022-08-30T06:44:59.665Z,72782.03
2022-08-30T06:45:34.610Z,72786.00
2022-08-30T06:46:10.568Z,72782.03